createdAt,value
2023-01-26T00:02:29.414Z,3.50
2023-01-26T00:05:38.810Z,3.37
2023-01-26T00:08:46.683Z,2.90
2023-01-26T00:11:52.936Z,3.70
2023-01-26T00:14:59.140Z,3.40
2023-01-26T00:18:07.303Z,3.70
2023-01-26T00:21:16.480Z,3.37
2023-01-26T00:24:22.900Z,4.47
2023-01-26T00:27:29.286Z,4.00
2023-01-26T00:30:35.450Z,3.37
2023-01-26T00:33:43.151Z,5.70
2023-01-26T00:36:49.515Z,5.80
2023-01-26T00:39:55.709Z,4.50
2023-01-26T00:43:02.157Z,4.73
2023-01-26T00:46:08.065Z,4.70
2023-01-26T00:49:15.920Z,3.77
2023-01-26T00:52:22.112Z,3.17
2023-01-26T00:55:32.562Z,4.17
2023-01-26T00:58:38.494Z,3.33
2023-01-26T01:01:44.623Z,4.13
2023-01-26T01:04:51.993Z,2.90
2023-01-26T01:07:58.387Z,3.67
2023-01-26T01:11:06.608Z,3.97
2023-01-26T01:14:14.136Z,3.40
2023-01-26T01:17:20.767Z,3.57
2023-01-26T01:20:29.296Z,3.23
2023-01-26T01:23:35.789Z,3.40
2023-01-26T01:26:42.575Z,3.20
2023-01-26T01:29:50.743Z,2.83
2023-01-26T01:32:57.104Z,4.03
2023-01-26T01:36:07.034Z,3.30
2023-01-26T01:39:13.284Z,2.73
2023-01-26T01:42:19.652Z,2.80
2023-01-26T01:45:42.791Z,3.00
2023-01-26T01:48:55.600Z,3.73
2023-01-26T01:52:07.377Z,4.40
2023-01-26T01:55:16.577Z,4.97
2023-01-26T01:58:23.255Z,3.70
2023-01-26T02:01:29.645Z,3.77
2023-01-26T02:04:35.889Z,3.10
2023-01-26T02:07:43.424Z,5.13
2023-01-26T02:10:52.087Z,3.33
2023-01-26T02:14:00.167Z,3.57
2023-01-26T02:17:06.741Z,3.60
2023-01-26T02:20:22.177Z,4.27
2023-01-26T02:23:43.827Z,3.97
2023-01-26T02:26:51.196Z,4.03
2023-01-26T02:29:59.023Z,4.20
2023-01-26T02:33:05.733Z,3.87
2023-01-26T02:36:19.543Z,5.40
2023-01-26T02:39:39.426Z,4.07
2023-01-26T02:42:47.260Z,4.77
2023-01-26T02:45:54.006Z,2.87
2023-01-26T02:49:18.214Z,4.37
2023-01-26T02:52:27.812Z,3.70
2023-01-26T02:55:33.972Z,5.80
2023-01-26T02:58:41.877Z,7.40
2023-01-26T03:01:50.563Z,10.70
2023-01-26T03:04:56.694Z,4.57
2023-01-26T03:08:06.183Z,4.77
2023-01-26T03:11:12.332Z,4.10
2023-01-26T03:14:20.233Z,3.47
2023-01-26T03:17:26.281Z,4.67
2023-01-26T03:20:50.103Z,3.57
2023-01-26T03:24:13.925Z,4.93
2023-01-26T03:27:29.509Z,4.00
2023-01-26T03:30:37.372Z,3.43
2023-01-26T03:33:43.857Z,3.53
2023-01-26T03:36:50.698Z,3.60
2023-01-26T03:40:14.948Z,3.77
2023-01-26T03:43:39.127Z,3.77
2023-01-26T03:47:04.322Z,49.27
2023-01-26T03:50:29.576Z,10.20
2023-01-26T03:53:53.742Z,6.00
2023-01-26T03:56:59.942Z,4.03
2023-01-26T04:00:07.156Z,5.00
2023-01-26T04:03:32.300Z,4.30
2023-01-26T04:06:57.952Z,4.87
2023-01-26T04:10:04.456Z,3.13
2023-01-26T04:13:28.103Z,4.20
2023-01-26T04:16:54.256Z,5.33
2023-01-26T04:20:19.334Z,3.63
2023-01-26T04:23:25.685Z,5.73
2023-01-26T04:26:36.990Z,4.70
2023-01-26T04:29:43.443Z,4.73
2023-01-26T04:32:52.033Z,6.27
2023-01-26T04:36:04.669Z,4.90
2023-01-26T04:39:11.115Z,5.10
2023-01-26T04:42:19.958Z,5.43
2023-01-26T04:45:26.136Z,8.77
2023-01-26T04:48:32.678Z,10.70
2023-01-26T04:51:40.376Z,9.47
2023-01-26T04:54:46.850Z,10.87
2023-01-26T04:57:53.335Z,7.00
2023-01-26T05:01:00.346Z,6.57
2023-01-26T05:04:12.272Z,3.40
2023-01-26T05:07:19.629Z,4.27
2023-01-26T05:10:26.034Z,4.33
2023-01-26T05:13:31.910Z,4.60
2023-01-26T05:16:38.659Z,3.87
2023-01-26T05:19:44.920Z,3.33
2023-01-26T05:22:52.832Z,5.10
2023-01-26T05:25:59.262Z,4.17
2023-01-26T05:29:05.623Z,4.53
2023-01-26T05:32:12.127Z,3.67
2023-01-26T05:35:21.297Z,2.73
2023-01-26T05:38:29.344Z,2.87
2023-01-26T05:41:35.813Z,2.77
2023-01-26T05:44:42.190Z,2.63
2023-01-26T05:47:48.816Z,3.23
2023-01-26T05:50:57.671Z,3.63
2023-01-26T05:54:06.575Z,2.00
2023-01-26T05:57:13.517Z,3.33
2023-01-26T06:00:20.541Z,5.87
2023-01-26T06:03:27.086Z,6.10
2023-01-26T06:06:33.446Z,4.33
2023-01-26T06:09:41.344Z,4.87
2023-01-26T06:12:47.644Z,7.67
2023-01-26T06:15:53.870Z,6.93
2023-01-26T06:19:00.464Z,4.77
2023-01-26T06:22:09.586Z,3.93
2023-01-26T06:25:17.420Z,2.97
2023-01-26T06:28:25.486Z,2.83
2023-01-26T06:31:31.889Z,3.03
2023-01-26T06:34:38.039Z,3.10
2023-01-26T06:37:45.654Z,2.77
2023-01-26T06:40:53.686Z,3.30
2023-01-26T06:44:01.374Z,4.10
2023-01-26T06:47:08.216Z,4.83
2023-01-26T06:50:16.420Z,2.87
2023-01-26T06:53:30.658Z,4.80
2023-01-26T06:56:38.912Z,2.70
2023-01-26T06:59:45.371Z,3.60
2023-01-26T07:02:51.520Z,4.03
2023-01-26T07:05:58.019Z,4.43
2023-01-26T07:09:04.465Z,3.03
2023-01-26T07:12:12.127Z,4.10
2023-01-26T07:15:18.616Z,4.47
2023-01-26T07:18:25.237Z,4.13
2023-01-26T07:21:31.955Z,4.23
2023-01-26T07:24:38.441Z,4.87
2023-01-26T07:27:46.646Z,5.43
2023-01-26T07:30:52.844Z,6.77
2023-01-26T07:33:58.730Z,2.87
2023-01-26T07:37:05.301Z,2.17
2023-01-26T07:40:12.794Z,3.57
2023-01-26T07:43:20.871Z,4.33
2023-01-26T07:46:27.070Z,4.53
2023-01-26T07:49:33.841Z,4.27
2023-01-26T07:52:39.988Z,4.60
2023-01-26T07:55:46.755Z,5.90
2023-01-26T07:58:55.567Z,4.23
2023-01-26T08:02:02.088Z,4.37
2023-01-26T08:05:09.177Z,6.13
2023-01-26T08:08:15.339Z,5.27
2023-01-26T08:11:24.453Z,5.67
2023-01-26T08:14:45.835Z,4.53
2023-01-26T08:17:54.479Z,5.97
2023-01-26T08:21:01.567Z,5.47
2023-01-26T08:24:08.816Z,4.20
2023-01-26T08:27:16.221Z,3.63
2023-01-26T08:30:24.012Z,3.63
2023-01-26T08:33:32.711Z,4.50
2023-01-26T08:36:40.324Z,4.33
2023-01-26T08:39:46.356Z,8.07
2023-01-26T08:42:52.632Z,6.10
2023-01-26T08:46:00.812Z,7.33
2023-01-26T08:49:07.054Z,6.37
2023-01-26T08:52:13.570Z,9.97
2023-01-26T08:55:20.138Z,11.23
2023-01-26T08:58:26.236Z,12.63
2023-01-26T09:01:33.948Z,9.13
2023-01-26T09:04:40.254Z,7.73
2023-01-26T09:07:46.533Z,9.80
2023-01-26T09:10:52.956Z,9.27
2023-01-26T09:13:59.203Z,8.23
2023-01-26T09:17:06.646Z,8.43
2023-01-26T09:20:13.829Z,8.97
2023-01-26T09:23:20.793Z,10.80
2023-01-26T09:26:26.866Z,8.27
2023-01-26T09:29:33.328Z,6.67
2023-01-26T09:32:40.734Z,16.83
2023-01-26T09:35:47.298Z,12.03
2023-01-26T09:38:54.334Z,8.80
2023-01-26T09:42:18.691Z,11.93
2023-01-26T09:45:33.356Z,10.10
2023-01-26T09:48:50.495Z,13.57
2023-01-26T09:52:04.625Z,9.63
2023-01-26T09:55:18.478Z,11.67
2023-01-26T09:58:35.863Z,10.17
2023-01-26T10:01:46.990Z,12.33
2023-01-26T10:04:59.882Z,11.03
2023-01-26T10:08:12.382Z,11.57
2023-01-26T10:11:25.976Z,10.67
2023-01-26T10:14:37.402Z,9.03
2023-01-26T10:17:47.004Z,7.20
2023-01-26T10:20:56.664Z,7.93
2023-01-26T10:24:05.894Z,11.43
2023-01-26T10:27:15.198Z,7.60
2023-01-26T10:30:22.589Z,13.03
2023-01-26T10:33:33.800Z,14.93
2023-01-26T10:36:43.810Z,12.17
2023-01-26T10:40:02.080Z,10.57
2023-01-26T10:43:19.762Z,11.53
2023-01-26T10:46:29.573Z,9.80
2023-01-26T10:49:36.240Z,6.53
2023-01-26T10:52:58.848Z,10.20
2023-01-26T10:56:08.416Z,9.20
2023-01-26T10:59:22.136Z,7.50
2023-01-26T11:02:30.573Z,9.53
2023-01-26T11:05:36.707Z,8.10
2023-01-26T11:08:44.985Z,6.60
2023-01-26T11:12:00.683Z,6.57
2023-01-26T11:15:16.806Z,8.67
2023-01-26T11:18:32.471Z,8.13
2023-01-26T11:21:42.704Z,9.20
2023-01-26T11:24:58.404Z,10.90
2023-01-26T11:28:27.887Z,10.03
2023-01-26T11:31:47.229Z,11.20
2023-01-26T11:35:09.033Z,10.83
2023-01-26T11:38:29.648Z,11.63
2023-01-26T11:41:50.248Z,10.43
2023-01-26T11:45:20.658Z,21.13
2023-01-26T11:48:39.383Z,10.27
2023-01-26T11:52:01.495Z,7.83
2023-01-26T11:55:29.420Z,15.73
2023-01-26T11:58:42.418Z,9.83
2023-01-26T12:01:55.259Z,14.53
2023-01-26T12:05:12.110Z,17.67
2023-01-26T12:08:26.467Z,13.03
2023-01-26T12:11:38.957Z,28.80
2023-01-26T12:14:52.327Z,24.80
2023-01-26T12:18:01.650Z,19.00
2023-01-26T12:21:11.714Z,15.70
2023-01-26T12:24:48.471Z,15.37
2023-01-26T12:27:57.604Z,14.60
2023-01-26T12:31:15.565Z,12.53
2023-01-26T12:34:28.391Z,13.93
2023-01-26T12:37:48.510Z,10.07
2023-01-26T12:41:05.126Z,9.10
2023-01-26T12:44:22.507Z,8.73
2023-01-26T12:47:34.932Z,11.77
2023-01-26T12:50:45.578Z,14.93
2023-01-26T12:53:59.206Z,12.20
2023-01-26T12:57:11.370Z,6.27
2023-01-26T13:00:23.827Z,6.70
2023-01-26T13:03:34.827Z,7.20
2023-01-26T13:06:41.396Z,7.40
2023-01-26T13:10:11.372Z,6.60
2023-01-26T13:13:30.337Z,10.87
2023-01-26T13:16:36.615Z,11.87
2023-01-26T13:19:59.802Z,13.87
2023-01-26T13:23:52.844Z,13.30
2023-01-26T13:27:00.780Z,9.77
2023-01-26T13:30:45.057Z,9.90
2023-01-26T13:33:51.330Z,12.00
2023-01-26T13:37:06.598Z,10.40
2023-01-26T13:40:20.924Z,15.47
2023-01-26T13:43:36.818Z,12.97
2023-01-26T13:46:50.023Z,12.43
2023-01-26T13:49:56.113Z,9.30
2023-01-26T13:53:03.857Z,19.60
2023-01-26T13:56:23.962Z,16.20
2023-01-26T13:59:30.448Z,13.40
2023-01-26T14:02:38.982Z,13.23
2023-01-26T14:05:52.247Z,11.10
2023-01-26T14:09:00.295Z,10.23
2023-01-26T14:12:08.755Z,12.20
2023-01-26T14:15:24.058Z,13.37
2023-01-26T14:18:30.703Z,22.13
2023-01-26T14:21:47.788Z,15.53
2023-01-26T14:24:56.312Z,23.47
2023-01-26T14:28:02.867Z,13.63
2023-01-26T14:31:16.906Z,13.87
2023-01-26T14:34:24.886Z,20.27
2023-01-26T14:37:31.268Z,14.20
2023-01-26T14:40:45.596Z,12.07
2023-01-26T14:43:56.079Z,14.10
2023-01-26T14:47:11.082Z,12.90
2023-01-26T14:50:24.417Z,11.83
2023-01-26T14:53:30.499Z,10.87
2023-01-26T14:56:41.993Z,11.20
2023-01-26T14:59:50.381Z,12.07
2023-01-26T15:02:58.589Z,14.80
2023-01-26T15:06:08.593Z,14.37
2023-01-26T15:09:22.930Z,17.17
2023-01-26T15:12:35.128Z,21.77
2023-01-26T15:15:44.020Z,20.77
2023-01-26T15:19:00.554Z,20.77
2023-01-26T15:22:07.430Z,19.10
2023-01-26T15:25:21.501Z,16.10
2023-01-26T15:28:29.601Z,16.57
2023-01-26T15:31:37.957Z,19.07
2023-01-26T15:34:46.027Z,17.20
2023-01-26T15:38:02.280Z,17.60
2023-01-26T15:41:11.003Z,25.23
2023-01-26T15:44:20.242Z,21.73
2023-01-26T15:47:26.820Z,20.00
2023-01-26T15:50:33.013Z,29.77
2023-01-26T15:53:39.214Z,21.17
2023-01-26T15:56:45.369Z,24.30
2023-01-26T15:59:53.167Z,20.80
2023-01-26T16:02:59.751Z,18.43
2023-01-26T16:06:06.432Z,24.33
2023-01-26T16:09:12.877Z,25.07
2023-01-26T16:12:31.068Z,23.80
2023-01-26T16:15:44.337Z,30.17
2023-01-26T16:18:50.872Z,18.10
2023-01-26T16:21:57.167Z,22.43
2023-01-26T16:25:03.420Z,15.80
2023-01-26T16:28:09.771Z,17.60
2023-01-26T16:31:20.576Z,18.70
2023-01-26T16:34:27.138Z,22.33
2023-01-26T16:37:33.580Z,21.93
2023-01-26T16:40:40.315Z,21.13
2023-01-26T16:43:46.883Z,18.03
2023-01-26T16:46:54.587Z,18.20
2023-01-26T16:50:01.320Z,21.63
2023-01-26T16:53:19.392Z,21.50
2023-01-26T16:56:26.460Z,18.87
2023-01-26T16:59:32.588Z,18.63
2023-01-26T17:02:40.737Z,15.60
2023-01-26T17:05:46.836Z,15.53
2023-01-26T17:08:53.062Z,13.37
2023-01-26T17:11:59.333Z,14.83
2023-01-26T17:15:06.456Z,13.27
2023-01-26T17:18:15.409Z,14.30
2023-01-26T17:21:22.513Z,12.67
2023-01-26T17:24:28.953Z,17.60
2023-01-26T17:27:35.383Z,16.97
2023-01-26T17:30:41.998Z,15.07
2023-01-26T17:33:51.354Z,12.53
2023-01-26T17:36:58.792Z,12.50
2023-01-26T17:40:05.389Z,7.93
2023-01-26T17:43:11.612Z,7.93
2023-01-26T17:46:19.399Z,11.20
2023-01-26T17:49:27.102Z,13.87
2023-01-26T17:52:35.447Z,14.63
2023-01-26T17:55:41.729Z,18.57
2023-01-26T17:58:50.051Z,24.23
2023-01-26T18:01:56.465Z,23.63
2023-01-26T18:05:03.859Z,25.57
2023-01-26T18:08:10.097Z,29.90
2023-01-26T18:11:17.832Z,29.70
2023-01-26T18:14:24.312Z,32.57
2023-01-26T18:17:30.524Z,30.97
2023-01-26T18:20:37.976Z,24.10
2023-01-26T18:23:47.599Z,27.37
2023-01-26T18:26:54.326Z,26.67
2023-01-26T18:30:00.446Z,27.80
2023-01-26T18:33:07.551Z,25.97
2023-01-26T18:36:17.414Z,23.23
2023-01-26T18:39:23.734Z,22.43
2023-01-26T18:42:30.041Z,74.10
2023-01-26T18:45:36.397Z,45.17
2023-01-26T18:48:42.545Z,33.00
2023-01-26T18:51:50.810Z,30.70
2023-01-26T18:54:56.947Z,22.43
2023-01-26T18:58:02.943Z,22.17
2023-01-26T19:01:13.671Z,19.90
2023-01-26T19:04:20.115Z,22.97
2023-01-26T19:07:27.688Z,16.87
2023-01-26T19:10:35.637Z,14.67
2023-01-26T19:13:43.283Z,15.40
2023-01-26T19:16:49.846Z,20.17
2023-01-26T19:19:56.239Z,21.50
2023-01-26T19:23:04.793Z,37.77
2023-01-26T19:26:12.495Z,26.27
2023-01-26T19:29:18.698Z,14.33
2023-01-26T19:32:24.787Z,9.63
2023-01-26T19:35:31.180Z,11.00
2023-01-26T19:38:39.973Z,9.43
2023-01-26T19:41:46.958Z,13.80
2023-01-26T19:44:53.308Z,14.47
2023-01-26T19:47:59.387Z,24.13
2023-01-26T19:51:08.447Z,20.13
2023-01-26T19:54:16.708Z,11.10
2023-01-26T19:57:23.388Z,17.20
2023-01-26T20:00:29.299Z,27.37
2023-01-26T20:03:35.611Z,12.57
2023-01-26T20:06:42.315Z,12.67
2023-01-26T20:09:50.959Z,15.20
2023-01-26T20:12:59.455Z,14.50
2023-01-26T20:16:08.387Z,13.57
2023-01-26T20:19:14.719Z,12.17
2023-01-26T20:22:20.981Z,11.40
2023-01-26T20:25:28.938Z,8.73
2023-01-26T20:28:35.661Z,12.03
2023-01-26T20:31:42.357Z,13.77
2023-01-26T20:34:49.524Z,10.83
2023-01-26T20:37:55.893Z,10.17
2023-01-26T20:41:07.474Z,9.23
2023-01-26T20:44:13.641Z,7.13
2023-01-26T20:47:21.911Z,8.27
2023-01-26T20:50:27.854Z,7.33
2023-01-26T20:53:34.109Z,8.40
2023-01-26T20:56:42.292Z,7.47
2023-01-26T20:59:48.917Z,9.77
2023-01-26T21:02:54.999Z,11.70
2023-01-26T21:06:01.526Z,10.57
2023-01-26T21:09:08.042Z,15.00
2023-01-26T21:12:15.701Z,14.03
2023-01-26T21:15:22.003Z,19.37
2023-01-26T21:18:28.179Z,13.93
2023-01-26T21:21:34.668Z,8.87
2023-01-26T21:24:41.188Z,18.97
2023-01-26T21:27:48.974Z,16.30
2023-01-26T21:31:02.077Z,17.00
2023-01-26T21:34:08.492Z,18.70
2023-01-26T21:37:14.643Z,23.23
2023-01-26T21:40:20.924Z,20.07
2023-01-26T21:43:29.133Z,18.17
2023-01-26T21:46:35.683Z,19.87
2023-01-26T21:49:41.841Z,13.53
2023-01-26T21:53:01.718Z,12.47
2023-01-26T21:56:07.773Z,20.27
2023-01-26T21:59:17.433Z,17.83
2023-01-26T22:02:23.825Z,13.00
2023-01-26T22:05:29.934Z,10.30
2023-01-26T22:08:35.715Z,8.57
2023-01-26T22:11:42.263Z,9.77
2023-01-26T22:14:51.787Z,7.10
2023-01-26T22:17:57.998Z,7.10
2023-01-26T22:21:04.258Z,12.53
2023-01-26T22:24:12.180Z,9.50
2023-01-26T22:27:18.667Z,11.43
2023-01-26T22:30:26.370Z,9.50
2023-01-26T22:33:34.875Z,7.97
2023-01-26T22:36:41.464Z,7.10
2023-01-26T22:39:49.193Z,8.20
2023-01-26T22:42:55.609Z,10.33
2023-01-26T22:46:08.870Z,7.27
2023-01-26T22:49:14.828Z,8.90
2023-01-26T22:52:20.821Z,9.43
2023-01-26T22:55:27.095Z,9.57
2023-01-26T22:58:39.633Z,8.50
2023-01-26T23:01:52.790Z,12.33
2023-01-26T23:04:58.864Z,11.47
2023-01-26T23:08:05.514Z,8.90
2023-01-26T23:11:14.819Z,8.13
2023-01-26T23:14:20.935Z,6.33
2023-01-26T23:17:28.621Z,7.50
2023-01-26T23:20:34.663Z,5.70
2023-01-26T23:23:41.992Z,13.30
2023-01-26T23:26:48.249Z,7.73
2023-01-26T23:29:54.147Z,6.63
2023-01-26T23:33:01.469Z,7.20
2023-01-26T23:36:09.535Z,8.87
2023-01-26T23:39:15.681Z,13.17
2023-01-26T23:42:22.071Z,10.63
2023-01-26T23:45:28.413Z,8.93
2023-01-26T23:48:35.819Z,8.67
2023-01-26T23:51:41.806Z,10.63
2023-01-26T23:54:48.031Z,10.07
2023-01-26T23:57:54.461Z,9.53
